createdAt,value
2022-12-22T00:02:10.051Z,61.26
2022-12-22T00:04:36.795Z,62.06
2022-12-22T00:07:03.454Z,62.09
2022-12-22T00:09:30.326Z,61.84
2022-12-22T00:11:57.007Z,62.17
2022-12-22T00:14:23.619Z,62.44
2022-12-22T00:16:50.307Z,62.26
2022-12-22T00:19:16.961Z,62.22
2022-12-22T00:21:43.650Z,62.04
2022-12-22T00:24:10.315Z,62.26
2022-12-22T00:26:36.967Z,61.41
2022-12-22T00:29:03.609Z,61.81
2022-12-22T00:31:30.246Z,62.78
2022-12-22T00:33:56.940Z,62.24
2022-12-22T00:36:23.575Z,62.14
2022-12-22T00:38:50.213Z,61.59
2022-12-22T00:41:16.851Z,62.19
2022-12-22T00:43:43.558Z,61.79
2022-12-22T00:46:10.283Z,62.67
2022-12-22T00:48:36.941Z,62.42
2022-12-22T00:51:03.657Z,62.21
2022-12-22T00:53:30.301Z,62.54
2022-12-22T00:55:56.962Z,61.62
2022-12-22T00:58:23.646Z,61.46
2022-12-22T01:00:50.337Z,62.10
2022-12-22T01:03:17.180Z,62.85
2022-12-22T01:05:43.926Z,61.78
2022-12-22T01:08:10.586Z,62.18
2022-12-22T01:10:37.387Z,61.56
2022-12-22T01:13:04.067Z,61.81
2022-12-22T01:15:30.832Z,61.89
2022-12-22T01:17:57.618Z,63.00
2022-12-22T01:20:24.312Z,63.25
2022-12-22T01:22:50.985Z,62.94
2022-12-22T01:25:17.658Z,61.99
2022-12-22T01:27:44.296Z,62.29
2022-12-22T01:30:11.045Z,62.29
2022-12-22T01:32:37.734Z,62.29
2022-12-22T01:35:04.423Z,62.39
2022-12-22T01:37:31.087Z,61.90
2022-12-22T01:39:57.799Z,62.42
2022-12-22T01:42:24.427Z,61.67
2022-12-22T01:44:51.143Z,62.55
2022-12-22T01:47:17.790Z,61.48
2022-12-22T01:49:44.512Z,62.59
2022-12-22T01:52:11.218Z,62.24
2022-12-22T01:54:37.916Z,61.97
2022-12-22T01:57:04.621Z,62.14
2022-12-22T01:59:31.298Z,62.15
2022-12-22T02:01:58.257Z,62.16
2022-12-22T02:04:25.051Z,62.32
2022-12-22T02:06:57.912Z,62.73
2022-12-22T02:09:26.534Z,62.35
2022-12-22T02:11:53.274Z,62.39
2022-12-22T02:14:22.567Z,62.03
2022-12-22T02:16:52.905Z,62.20
2022-12-22T02:19:19.564Z,62.06
2022-12-22T02:21:46.262Z,62.33
2022-12-22T02:24:12.914Z,61.61
2022-12-22T02:26:39.624Z,61.82
2022-12-22T02:29:06.266Z,62.33
2022-12-22T02:31:33.055Z,62.61
2022-12-22T02:33:59.848Z,62.46
2022-12-22T02:36:26.571Z,62.55
2022-12-22T02:38:53.284Z,61.83
2022-12-22T02:41:19.991Z,62.11
2022-12-22T02:43:46.631Z,61.62
2022-12-22T02:46:13.515Z,61.67
2022-12-22T02:48:40.185Z,62.09
2022-12-22T02:51:06.800Z,62.41
2022-12-22T02:53:33.671Z,61.63
2022-12-22T02:56:00.354Z,62.00
2022-12-22T02:58:27.052Z,62.23
2022-12-22T03:00:53.727Z,62.61
2022-12-22T03:03:22.791Z,62.38
2022-12-22T03:05:49.610Z,63.12
2022-12-22T03:08:16.255Z,63.35
2022-12-22T03:10:42.907Z,62.43
2022-12-22T03:13:09.611Z,62.87
2022-12-22T03:15:36.305Z,62.64
2022-12-22T03:18:02.972Z,62.82
2022-12-22T03:20:29.652Z,62.65
2022-12-22T03:22:56.370Z,62.71
2022-12-22T03:25:23.050Z,62.42
2022-12-22T03:27:49.699Z,61.90
2022-12-22T03:30:16.337Z,61.72
2022-12-22T03:32:42.969Z,61.79
2022-12-22T03:35:09.599Z,62.13
2022-12-22T03:37:36.286Z,62.59
2022-12-22T03:40:02.984Z,62.86
2022-12-22T03:42:29.654Z,63.05
2022-12-22T03:44:56.456Z,63.08
2022-12-22T03:47:23.126Z,62.92
2022-12-22T03:49:49.776Z,62.60
2022-12-22T03:52:16.440Z,63.55
2022-12-22T03:54:43.105Z,63.04
2022-12-22T03:57:09.827Z,62.98
2022-12-22T03:59:36.535Z,63.06
2022-12-22T04:02:03.396Z,64.00
2022-12-22T04:04:30.253Z,64.17
2022-12-22T04:06:56.886Z,65.30
2022-12-22T04:09:23.577Z,64.07
2022-12-22T04:11:50.239Z,63.84
2022-12-22T04:14:16.887Z,63.63
2022-12-22T04:16:43.578Z,63.62
2022-12-22T04:19:10.320Z,63.62
2022-12-22T04:21:37.078Z,63.44
2022-12-22T04:24:03.791Z,64.06
2022-12-22T04:26:30.546Z,64.48
2022-12-22T04:28:57.269Z,65.78
2022-12-22T04:31:24.082Z,64.94
2022-12-22T04:33:50.844Z,65.16
2022-12-22T04:36:17.520Z,64.65
2022-12-22T04:38:44.237Z,64.86
2022-12-22T04:41:10.972Z,64.22
2022-12-22T04:43:37.675Z,64.64
2022-12-22T04:46:04.512Z,64.39
2022-12-22T04:48:31.190Z,64.13
2022-12-22T04:50:57.832Z,64.04
2022-12-22T04:53:24.488Z,63.67
2022-12-22T04:55:51.132Z,64.44
2022-12-22T04:58:18.061Z,64.04
2022-12-22T05:00:44.762Z,64.27
2022-12-22T05:03:11.449Z,64.16
2022-12-22T05:05:38.179Z,63.78
2022-12-22T05:08:04.818Z,64.16
2022-12-22T05:10:31.467Z,63.04
2022-12-22T05:12:58.151Z,63.40
2022-12-22T05:15:24.803Z,63.16
2022-12-22T05:17:51.428Z,62.68
2022-12-22T05:20:18.081Z,63.48
2022-12-22T05:22:44.780Z,63.52
2022-12-22T05:25:11.393Z,63.15
2022-12-22T05:27:38.116Z,62.61
2022-12-22T05:30:04.767Z,62.92
2022-12-22T05:32:31.461Z,63.06
2022-12-22T05:34:58.120Z,63.65
2022-12-22T05:37:24.782Z,62.88
2022-12-22T05:39:51.491Z,63.33
2022-12-22T05:42:18.224Z,63.22
2022-12-22T05:44:44.999Z,62.66
2022-12-22T05:47:11.677Z,63.45
2022-12-22T05:49:38.519Z,63.02
2022-12-22T05:52:05.252Z,62.83
2022-12-22T05:54:31.978Z,63.63
2022-12-22T05:56:58.860Z,64.23
2022-12-22T05:59:25.700Z,64.88
2022-12-22T06:01:52.452Z,64.57
2022-12-22T06:04:19.429Z,64.93
2022-12-22T06:06:46.261Z,64.19
2022-12-22T06:09:12.909Z,63.46
2022-12-22T06:11:39.570Z,63.40
2022-12-22T06:14:06.262Z,63.57
2022-12-22T06:16:33.058Z,63.78
2022-12-22T06:18:59.819Z,63.40
2022-12-22T06:21:26.568Z,63.09
2022-12-22T06:23:53.230Z,63.79
2022-12-22T06:26:19.929Z,63.42
2022-12-22T06:28:46.601Z,64.15
2022-12-22T06:31:13.419Z,64.70
2022-12-22T06:33:40.133Z,64.41
2022-12-22T06:36:06.816Z,64.83
2022-12-22T06:38:33.542Z,64.96
2022-12-22T06:41:00.193Z,64.26
2022-12-22T06:43:26.818Z,63.75
2022-12-22T06:45:53.776Z,63.99
2022-12-22T06:48:20.560Z,63.89
2022-12-22T06:50:47.201Z,63.81
2022-12-22T06:53:13.937Z,63.51
2022-12-22T06:55:40.592Z,63.29
2022-12-22T06:58:07.310Z,63.62
2022-12-22T07:00:33.978Z,63.72
2022-12-22T07:03:01.028Z,63.74
2022-12-22T07:05:27.872Z,63.10
2022-12-22T07:07:54.560Z,62.86
2022-12-22T07:10:21.218Z,63.68
2022-12-22T07:12:47.856Z,63.83
2022-12-22T07:15:14.735Z,64.14
2022-12-22T07:17:41.419Z,64.37
2022-12-22T07:20:08.101Z,64.00
2022-12-22T07:22:34.801Z,63.57
2022-12-22T07:25:01.434Z,64.22
2022-12-22T07:27:28.125Z,63.72
2022-12-22T07:29:54.785Z,64.25
2022-12-22T07:32:21.472Z,64.45
2022-12-22T07:34:48.145Z,63.71
2022-12-22T07:37:14.811Z,64.92
2022-12-22T07:39:41.552Z,64.51
2022-12-22T07:42:08.252Z,63.68
2022-12-22T07:44:34.933Z,63.96
2022-12-22T07:47:01.680Z,64.31
2022-12-22T07:49:28.362Z,63.95
2022-12-22T07:51:55.070Z,63.92
2022-12-22T07:54:21.761Z,63.35
2022-12-22T07:56:48.502Z,63.20
2022-12-22T07:59:15.209Z,63.31
2022-12-22T08:01:42.178Z,63.51
2022-12-22T08:04:09.063Z,63.50
2022-12-22T08:06:35.746Z,63.52
2022-12-22T08:09:02.433Z,63.30
2022-12-22T08:11:29.153Z,63.38
2022-12-22T08:14:01.053Z,63.58
2022-12-22T08:16:28.540Z,63.03
2022-12-22T08:18:55.740Z,63.58
2022-12-22T08:21:22.426Z,63.28
2022-12-22T08:23:49.042Z,63.70
2022-12-22T08:26:15.966Z,64.12
2022-12-22T08:28:42.652Z,63.67
2022-12-22T08:31:09.426Z,63.96
2022-12-22T08:33:36.165Z,64.80
2022-12-22T08:36:07.740Z,63.60
2022-12-22T08:38:35.024Z,63.75
2022-12-22T08:41:01.691Z,64.22
2022-12-22T08:43:28.403Z,63.54
2022-12-22T08:45:55.044Z,64.23
2022-12-22T08:48:21.765Z,65.66
2022-12-22T08:50:48.476Z,65.14
2022-12-22T08:53:45.160Z,65.50
2022-12-22T08:56:01.787Z,64.91
2022-12-22T08:58:28.441Z,64.19
2022-12-22T09:00:55.223Z,64.40
2022-12-22T09:03:22.049Z,64.27
2022-12-22T09:05:48.790Z,64.38
2022-12-22T09:08:15.462Z,63.61
2022-12-22T09:10:42.133Z,63.86
2022-12-22T09:13:08.800Z,63.81
2022-12-22T09:15:35.487Z,64.81
2022-12-22T09:18:02.169Z,63.75
2022-12-22T09:20:28.898Z,63.69
2022-12-22T09:22:55.535Z,63.18
2022-12-22T09:25:22.402Z,63.78
2022-12-22T09:27:49.093Z,65.73
2022-12-22T09:30:15.769Z,65.56
2022-12-22T09:32:42.411Z,64.44
2022-12-22T09:35:09.077Z,63.59
2022-12-22T09:37:35.752Z,62.64
2022-12-22T09:40:02.437Z,62.03
2022-12-22T09:42:29.286Z,61.70
2022-12-22T09:44:55.946Z,61.33
2022-12-22T09:47:22.696Z,62.31
2022-12-22T09:49:49.386Z,61.90
2022-12-22T09:52:16.050Z,60.56
2022-12-22T09:54:42.775Z,60.26
2022-12-22T09:57:09.467Z,59.90
2022-12-22T09:59:36.182Z,59.79
2022-12-22T10:02:02.932Z,58.85
2022-12-22T10:04:29.918Z,59.05
2022-12-22T10:06:56.630Z,59.56
2022-12-22T10:09:48.311Z,60.99
2022-12-22T10:12:10.053Z,61.39
2022-12-22T10:14:36.800Z,60.77
2022-12-22T10:17:03.537Z,60.09
2022-12-22T10:19:30.298Z,59.35
2022-12-22T10:21:56.941Z,58.53
2022-12-22T10:24:23.696Z,58.24
2022-12-22T10:26:50.352Z,58.30
2022-12-22T10:29:17.023Z,58.19
2022-12-22T10:31:43.747Z,57.09
2022-12-22T10:34:10.506Z,57.85
2022-12-22T10:36:37.200Z,57.77
2022-12-22T10:39:04.380Z,56.42
2022-12-22T10:41:31.196Z,56.47
2022-12-22T10:43:57.884Z,56.26
2022-12-22T10:46:24.667Z,55.62
2022-12-22T10:48:51.356Z,55.43
2022-12-22T10:51:18.617Z,55.42
2022-12-22T10:53:45.325Z,55.73
2022-12-22T10:56:11.987Z,55.77
2022-12-22T10:58:38.696Z,55.77
2022-12-22T11:01:05.535Z,56.04
2022-12-22T11:03:32.587Z,55.45
2022-12-22T11:05:59.446Z,56.33
2022-12-22T11:08:26.131Z,56.99
2022-12-22T11:10:52.833Z,57.68
2022-12-22T11:13:19.527Z,57.88
2022-12-22T11:15:46.269Z,57.34
2022-12-22T11:18:13.020Z,56.75
2022-12-22T11:20:39.721Z,56.05
2022-12-22T11:23:06.446Z,55.41
2022-12-22T11:25:33.167Z,55.78
2022-12-22T11:27:59.867Z,54.76
2022-12-22T11:30:26.574Z,54.99
2022-12-22T11:32:53.346Z,54.07
2022-12-22T11:35:20.035Z,54.61
2022-12-22T11:37:46.679Z,54.22
2022-12-22T11:40:13.403Z,54.13
2022-12-22T11:42:40.064Z,55.71
2022-12-22T11:45:06.742Z,54.80
2022-12-22T11:47:33.557Z,54.35
2022-12-22T11:50:46.117Z,53.99
2022-12-22T11:52:46.910Z,54.69
2022-12-22T11:55:13.667Z,55.37
2022-12-22T11:57:40.492Z,54.60
2022-12-22T12:00:07.674Z,55.62
2022-12-22T12:02:34.395Z,56.14
2022-12-22T12:05:01.133Z,56.48
2022-12-22T12:07:27.859Z,54.83
2022-12-22T12:09:54.516Z,54.51
2022-12-22T12:12:21.457Z,55.91
2022-12-22T12:14:48.100Z,55.45
2022-12-22T12:17:14.799Z,54.05
2022-12-22T12:19:44.199Z,53.65
2022-12-22T12:22:10.887Z,52.37
2022-12-22T12:24:37.586Z,53.12
2022-12-22T12:27:04.297Z,52.89
2022-12-22T12:29:31.026Z,53.69
2022-12-22T12:31:57.743Z,54.15
2022-12-22T12:34:24.423Z,54.89
2022-12-22T12:36:51.110Z,54.07
2022-12-22T12:39:17.738Z,54.22
2022-12-22T12:41:44.428Z,54.31
2022-12-22T12:44:11.142Z,54.34
2022-12-22T12:46:38.057Z,55.10
2022-12-22T12:49:04.837Z,55.33
2022-12-22T12:51:31.505Z,54.64
2022-12-22T12:53:58.222Z,55.96
2022-12-22T12:56:25.031Z,55.59
2022-12-22T12:58:51.768Z,56.06
2022-12-22T13:01:18.457Z,57.03
2022-12-22T13:06:31.893Z,57.18
2022-12-22T13:09:14.340Z,56.88
2022-12-22T13:14:31.892Z,58.48
2022-12-22T13:16:58.661Z,58.84
2022-12-22T13:19:25.384Z,59.65
2022-12-22T13:21:53.861Z,60.21
2022-12-22T13:24:26.235Z,59.44
2022-12-22T13:26:53.384Z,58.86
2022-12-22T13:29:20.061Z,57.81
2022-12-22T13:31:46.954Z,56.56
2022-12-22T13:34:13.815Z,56.70
2022-12-22T13:36:40.468Z,56.36
2022-12-22T13:39:07.164Z,55.68
2022-12-22T13:41:33.942Z,55.57
2022-12-22T13:44:00.843Z,55.53
2022-12-22T13:46:27.612Z,55.69
2022-12-22T13:48:54.332Z,55.55
2022-12-22T13:51:21.121Z,56.14
2022-12-22T13:56:34.453Z,56.94
2022-12-22T13:59:01.125Z,57.36
2022-12-22T14:01:27.851Z,56.92
2022-12-22T14:04:02.960Z,56.88
2022-12-22T14:06:30.132Z,56.40
2022-12-22T14:08:56.912Z,56.40
2022-12-22T14:11:23.659Z,56.42
2022-12-22T14:13:50.292Z,56.60
2022-12-22T14:16:17.021Z,57.81
2022-12-22T14:18:43.765Z,58.17
2022-12-22T14:21:10.806Z,58.64
2022-12-22T14:23:37.477Z,58.63
2022-12-22T14:26:04.252Z,59.41
2022-12-22T14:28:30.913Z,59.18
2022-12-22T14:30:57.609Z,59.72
2022-12-22T14:33:24.270Z,60.22
2022-12-22T14:35:50.942Z,59.90
2022-12-22T14:38:17.667Z,61.88
2022-12-22T14:40:44.521Z,62.79
2022-12-22T14:43:11.193Z,63.45
2022-12-22T14:45:37.956Z,62.81
2022-12-22T14:48:04.739Z,63.56
2022-12-22T14:50:31.478Z,63.49
2022-12-22T14:52:58.239Z,63.73
2022-12-22T14:55:25.183Z,62.95
2022-12-22T14:57:51.847Z,62.72
2022-12-22T15:00:18.488Z,62.48
2022-12-22T15:02:45.288Z,61.72
2022-12-22T15:05:12.000Z,61.89
2022-12-22T15:08:04.708Z,62.27
2022-12-22T15:10:25.449Z,61.94
2022-12-22T15:12:52.366Z,62.19
2022-12-22T15:15:20.699Z,63.16
2022-12-22T15:17:47.399Z,63.23
2022-12-22T15:20:14.069Z,63.23
2022-12-22T15:22:41.046Z,63.27
2022-12-22T15:25:07.734Z,63.07
2022-12-22T15:27:34.404Z,63.65
2022-12-22T15:30:01.064Z,63.92
2022-12-22T15:32:31.741Z,63.63
2022-12-22T15:35:01.165Z,63.53
2022-12-22T15:37:27.860Z,63.85
2022-12-22T15:39:54.523Z,65.43
2022-12-22T15:42:21.267Z,65.33
2022-12-22T15:44:47.983Z,65.35
2022-12-22T15:47:14.724Z,64.53
2022-12-22T15:49:41.470Z,64.25
2022-12-22T15:52:08.185Z,63.57
2022-12-22T15:54:34.881Z,63.46
2022-12-22T15:57:01.506Z,63.50
2022-12-22T15:59:28.151Z,63.96
2022-12-22T16:02:00.494Z,65.06
2022-12-22T16:04:28.303Z,64.62
2022-12-22T16:06:55.097Z,64.44
2022-12-22T16:09:21.759Z,64.56
2022-12-22T16:11:48.643Z,64.25
2022-12-22T16:14:15.279Z,63.90
2022-12-22T16:16:41.977Z,64.17
2022-12-22T16:19:08.709Z,64.41
2022-12-22T16:21:35.365Z,64.81
2022-12-22T16:24:02.076Z,64.80
2022-12-22T16:26:28.801Z,65.23
2022-12-22T16:28:55.476Z,64.05
2022-12-22T16:31:22.220Z,64.19
2022-12-22T16:33:49.079Z,64.48
2022-12-22T16:36:15.790Z,63.83
2022-12-22T16:38:42.619Z,63.96
2022-12-22T16:41:09.310Z,64.10
2022-12-22T16:43:51.439Z,65.39
2022-12-22T16:46:18.245Z,65.84
2022-12-22T16:48:45.044Z,65.26
2022-12-22T16:51:11.945Z,66.30
2022-12-22T16:53:38.657Z,65.88
2022-12-22T16:56:05.380Z,66.93
2022-12-22T16:58:32.036Z,66.60
2022-12-22T17:00:58.710Z,66.04
2022-12-22T17:03:25.503Z,65.89
2022-12-22T17:05:52.324Z,66.06
2022-12-22T17:08:19.012Z,66.02
2022-12-22T17:10:45.694Z,67.08
2022-12-22T17:13:12.361Z,67.59
2022-12-22T17:15:39.081Z,66.58
2022-12-22T17:18:05.820Z,67.88
2022-12-22T17:20:34.082Z,67.46
2022-12-22T17:23:00.769Z,68.00
2022-12-22T17:25:27.428Z,67.69
2022-12-22T17:27:54.112Z,67.60
2022-12-22T17:30:20.780Z,66.73
2022-12-22T17:32:47.482Z,66.11
2022-12-22T17:35:14.132Z,66.25
2022-12-22T17:37:40.769Z,65.23
2022-12-22T17:40:07.493Z,67.85
2022-12-22T17:42:34.254Z,67.36
2022-12-22T17:45:01.116Z,67.33
2022-12-22T17:47:33.432Z,67.02
2022-12-22T17:50:01.738Z,67.41
2022-12-22T17:52:28.412Z,66.80
2022-12-22T17:54:55.095Z,66.38
2022-12-22T17:57:21.760Z,66.71
2022-12-22T17:59:48.408Z,66.19
2022-12-22T18:02:15.185Z,65.78
2022-12-22T18:04:42.039Z,65.44
2022-12-22T18:07:08.720Z,65.58
2022-12-22T18:09:35.390Z,65.50
2022-12-22T18:12:02.277Z,64.99
2022-12-22T18:14:28.985Z,64.56
2022-12-22T18:16:55.667Z,64.91
2022-12-22T18:19:22.328Z,64.52
2022-12-22T18:21:48.965Z,65.11
2022-12-22T18:24:15.657Z,65.30
2022-12-22T18:26:42.310Z,65.92
2022-12-22T18:29:08.982Z,66.27
2022-12-22T18:31:35.757Z,66.16
2022-12-22T18:34:02.418Z,66.15
2022-12-22T18:36:29.155Z,66.20
2022-12-22T18:38:55.847Z,66.49
2022-12-22T18:41:22.582Z,66.97
2022-12-22T18:43:49.294Z,66.53
2022-12-22T18:46:16.072Z,66.33
2022-12-22T18:48:43.046Z,66.75
2022-12-22T18:51:09.738Z,66.50
2022-12-22T18:53:36.424Z,66.45
2022-12-22T18:56:03.122Z,66.42
2022-12-22T18:58:29.813Z,65.74
2022-12-22T19:00:56.670Z,66.64
2022-12-22T19:03:23.470Z,66.23
2022-12-22T19:05:50.280Z,66.05
2022-12-22T19:08:16.980Z,65.78
2022-12-22T19:10:43.712Z,66.90
2022-12-22T19:13:10.341Z,66.76
2022-12-22T19:15:37.002Z,66.96
2022-12-22T19:18:03.642Z,66.89
2022-12-22T19:20:30.323Z,66.47
2022-12-22T19:22:57.011Z,66.15
2022-12-22T19:25:23.750Z,66.89
2022-12-22T19:27:50.460Z,66.59
2022-12-22T19:30:17.152Z,66.11
2022-12-22T19:32:44.012Z,65.55
2022-12-22T19:35:10.849Z,65.69
2022-12-22T19:37:37.547Z,65.43
2022-12-22T19:40:04.271Z,66.13
2022-12-22T19:42:30.986Z,66.09
2022-12-22T19:44:57.633Z,65.29
2022-12-22T19:47:24.386Z,65.65
2022-12-22T19:49:51.280Z,65.45
2022-12-22T19:52:17.979Z,65.90
2022-12-22T19:54:44.662Z,66.89
2022-12-22T19:57:13.304Z,66.40
2022-12-22T19:59:40.205Z,66.66
2022-12-22T20:02:07.165Z,66.83
2022-12-22T20:04:33.996Z,66.51
2022-12-22T20:07:00.682Z,66.33
2022-12-22T20:09:27.318Z,66.62
2022-12-22T20:11:54.079Z,66.65
2022-12-22T20:14:20.812Z,65.82
2022-12-22T20:16:47.605Z,66.24
2022-12-22T20:19:14.323Z,66.38
2022-12-22T20:21:40.961Z,65.05
2022-12-22T20:24:07.693Z,66.10
2022-12-22T20:26:34.400Z,66.04
2022-12-22T20:29:01.046Z,67.21
2022-12-22T20:31:27.775Z,66.68
2022-12-22T20:33:54.583Z,66.59
2022-12-22T20:36:21.295Z,66.68
2022-12-22T20:38:48.010Z,66.09
2022-12-22T20:41:14.743Z,65.90
2022-12-22T20:43:41.426Z,66.25
2022-12-22T20:46:08.293Z,65.88
2022-12-22T20:48:34.991Z,65.91
2022-12-22T20:51:01.709Z,66.53
2022-12-22T20:53:28.383Z,66.42
2022-12-22T20:55:55.316Z,66.59
2022-12-22T20:58:22.080Z,66.22
2022-12-22T21:00:48.848Z,66.27
2022-12-22T21:03:15.724Z,66.37
2022-12-22T21:05:42.478Z,67.35
2022-12-22T21:08:10.823Z,66.61
2022-12-22T21:10:40.590Z,67.11
2022-12-22T21:13:07.368Z,66.97
2022-12-22T21:15:34.088Z,66.97
2022-12-22T21:18:00.748Z,66.19
2022-12-22T21:20:27.482Z,66.07
2022-12-22T21:22:54.207Z,66.22
2022-12-22T21:25:21.001Z,67.37
2022-12-22T21:27:47.676Z,67.43
2022-12-22T21:30:14.383Z,67.42
2022-12-22T21:32:41.050Z,66.65
2022-12-22T21:35:08.499Z,66.74
2022-12-22T21:37:35.382Z,67.03
2022-12-22T21:40:02.176Z,66.35
2022-12-22T21:42:28.854Z,67.05
2022-12-22T21:44:55.592Z,67.46
2022-12-22T21:47:22.244Z,68.72
2022-12-22T21:49:49.170Z,67.60
2022-12-22T21:52:16.009Z,67.86
2022-12-22T21:54:42.744Z,67.81
2022-12-22T21:57:09.494Z,67.74
2022-12-22T21:59:36.292Z,66.98
2022-12-22T22:02:03.106Z,67.07
2022-12-22T22:04:29.848Z,66.93
2022-12-22T22:06:56.619Z,67.42
2022-12-22T22:09:23.272Z,68.30
2022-12-22T22:11:50.235Z,69.16
2022-12-22T22:14:17.081Z,68.72
2022-12-22T22:16:43.805Z,69.45
2022-12-22T22:19:10.509Z,69.06
2022-12-22T22:21:37.149Z,68.35
2022-12-22T22:24:03.866Z,68.38
2022-12-22T22:26:30.570Z,67.57
2022-12-22T22:28:57.278Z,67.80
2022-12-22T22:31:24.030Z,66.88
2022-12-22T22:33:50.705Z,68.26
2022-12-22T22:36:17.423Z,68.28
2022-12-22T22:38:44.140Z,67.99
2022-12-22T22:41:10.772Z,68.09
2022-12-22T22:43:37.581Z,68.28
2022-12-22T22:46:04.261Z,67.56
2022-12-22T22:48:30.958Z,67.12
2022-12-22T22:50:57.786Z,67.00
2022-12-22T22:53:24.455Z,67.53
2022-12-22T22:55:51.250Z,68.49
2022-12-22T22:58:18.259Z,67.71
2022-12-22T23:00:45.201Z,67.12
2022-12-22T23:03:11.987Z,67.36
2022-12-22T23:05:38.719Z,66.59
2022-12-22T23:08:05.463Z,66.64
2022-12-22T23:10:37.735Z,67.12
2022-12-22T23:13:07.933Z,66.70
2022-12-22T23:15:34.580Z,67.40
2022-12-22T23:18:01.210Z,67.01
2022-12-22T23:20:27.869Z,67.56
2022-12-22T23:22:54.487Z,67.78
2022-12-22T23:25:21.205Z,67.62
2022-12-22T23:27:47.909Z,67.24
2022-12-22T23:30:14.647Z,67.10
2022-12-22T23:32:41.296Z,66.78
2022-12-22T23:35:07.930Z,66.31
2022-12-22T23:37:34.664Z,66.79
2022-12-22T23:40:41.468Z,66.28
2022-12-22T23:42:51.753Z,66.39
2022-12-22T23:45:23.248Z,66.46
2022-12-22T23:47:49.908Z,66.96
2022-12-22T23:50:16.557Z,66.73
2022-12-22T23:52:48.865Z,67.15
2022-12-22T23:55:16.062Z,66.29
2022-12-22T23:57:42.748Z,66.46
